Time;durP1;ratioP1;P1;durP2;ratioP2;P2;SDS_P1;SDS_P2;PMS_P1;PMS_P2;Temp;Humidity;BMP_temperature;BMP_pressure;BME280_temperature;BME280_humidity;BME280_pressure;Samples;Min_cycle;Max_cycle;Signal;HPM_P1;HPM_P2
2021/06/30 00:03:53;;;;;;;;;14.67;13.00;;;;;25.34;52.41;97780.94;4746769;28;102283;-81
2021/06/30 00:06:25;;;;;;;;;12.67;12.33;;;;;25.39;52.42;97780.81;4761671;28;102002;-80
2021/06/30 00:08:55;;;;;;;;;12.00;12.00;;;;;25.39;52.46;97789.13;4845792;28;104160;-80
2021/06/30 00:11:40;;;;;;;;;14.67;13.00;;;;;25.36;52.51;97766.75;4763377;28;102102;-80
2021/06/30 00:14:25;;;;;;;;;15.33;14.33;;;;;25.28;52.64;97779.44;4832218;29;102314;-81
2021/06/30 00:17:11;;;;;;;;;13.00;12.67;;;;;25.27;52.63;97795.22;4762942;29;102759;-81
2021/06/30 00:19:48;;;;;;;;;12.33;12.33;;;;;25.35;52.88;97826.88;4841742;28;103068;-80
2021/06/30 00:22:26;;;;;;;;;13.67;12.00;;;;;25.31;52.64;97804.50;4820603;28;103956;-80
2021/06/30 00:25:07;;;;;;;;;13.00;12.67;;;;;25.21;52.74;97773.53;4802157;28;102251;-80
2021/06/30 00:27:54;;;;;;;;;10.67;10.67;;;;;25.25;52.42;97799.44;4826123;29;102365;-80
2021/06/30 00:30:32;;;;;;;;;12.33;12.33;;;;;25.19;52.35;97795.16;4813301;29;107836;-82
2021/06/30 00:33:10;;;;;;;;;12.67;12.00;;;;;25.32;52.37;97788.72;4803601;29;102455;-81
2021/06/30 00:35:44;;;;;;;;;12.33;11.67;;;;;25.25;52.36;97778.13;4834696;28;102948;-80
2021/06/30 00:38:23;;;;;;;;;11.67;11.00;;;;;25.32;52.48;97794.25;4828979;28;102587;-80
2021/06/30 00:40:58;;;;;;;;;14.00;12.00;;;;;25.27;52.16;97775.03;4797224;29;107175;-81
2021/06/30 00:43:27;;;;;;;;;12.67;12.67;;;;;25.20;52.14;97769.13;4832351;28;103361;-80
2021/06/30 00:45:59;;;;;;;;;10.67;9.00;;;;;25.27;52.17;97786.91;4837518;28;102017;-80
2021/06/30 00:48:35;;;;;;;;;12.00;12.00;;;;;25.21;52.05;97784.59;4811074;28;102205;-80
2021/06/30 00:51:12;;;;;;;;;11.67;10.00;;;;;25.24;51.80;97787.56;4851709;28;102888;-82
2021/06/30 00:53:39;;;;;;;;;12.00;10.67;;;;;25.32;52.17;97791.50;4839577;28;102420;-80
2021/06/30 00:56:11;;;;;;;;;13.33;12.00;;;;;25.26;51.94;97779.72;4829662;28;103282;-81
2021/06/30 00:58:53;;;;;;;;;10.33;9.67;;;;;25.33;52.09;97773.75;4827093;28;102492;-82
2021/06/30 01:01:27;;;;;;;;;12.33;11.00;;;;;25.28;52.13;97762.81;4846617;28;108167;-80
2021/06/30 01:04:05;;;;;;;;;10.00;10.00;;;;;25.27;51.88;97758.41;4760459;28;103787;-81
2021/06/30 01:06:34;;;;;;;;;11.00;10.00;;;;;25.22;52.01;97772.38;4840486;28;102707;-81
2021/06/30 01:09:15;;;;;;;;;10.33;10.33;;;;;25.19;51.97;97795.97;4816370;28;103759;-81
2021/06/30 01:11:52;;;;;;;;;11.00;9.67;;;;;25.22;51.74;97773.19;4792024;28;103002;-80
2021/06/30 01:14:41;;;;;;;;;11.67;9.67;;;;;25.31;51.91;97768.53;4823551;28;103673;-82
2021/06/30 01:17:21;;;;;;;;;9.67;8.00;;;;;25.29;51.94;97756.16;4835387;28;102330;-81
2021/06/30 01:20:07;;;;;;;;;12.67;10.67;;;;;25.22;52.09;97739.16;4843439;28;102601;-81
2021/06/30 01:23:08;;;;;;;;;10.67;10.33;;;;;25.24;52.14;97714.78;4767456;28;106178;-81
2021/06/30 01:26:01;;;;;;;;;10.00;10.00;;;;;25.27;51.92;97701.13;4775783;28;102693;-81
2021/06/30 01:28:46;;;;;;;;;11.33;10.00;;;;;25.24;51.68;97695.41;4774230;28;102073;-81
2021/06/30 01:31:33;;;;;;;;;9.00;9.00;;;;;25.26;51.79;97693.16;4829840;28;102742;-80
2021/06/30 01:34:14;;;;;;;;;8.33;8.33;;;;;25.25;51.75;97617.63;4835556;28;106253;-82
2021/06/30 01:36:56;;;;;;;;;13.33;10.00;;;;;25.25;51.88;97567.00;4849163;28;102163;-81
2021/06/30 01:39:32;;;;;;;;;8.67;8.67;;;;;25.23;52.00;97536.88;4847775;28;103000;-81
2021/06/30 01:42:09;;;;;;;;;12.33;9.33;;;;;25.24;52.13;97526.63;4821951;28;102422;-80
2021/06/30 01:44:48;;;;;;;;;10.67;9.00;;;;;25.23;51.81;97524.97;4822676;28;106694;-79
2021/06/30 01:47:31;;;;;;;;;8.67;8.00;;;;;25.24;52.12;97595.78;4836216;28;102089;-80
2021/06/30 01:50:12;;;;;;;;;9.00;8.67;;;;;25.17;51.89;97578.84;4846808;28;103193;-80
2021/06/30 01:52:59;;;;;;;;;11.33;9.33;;;;;25.19;52.36;97562.72;4767245;28;102518;-80
2021/06/30 01:55:40;;;;;;;;;9.67;9.33;;;;;25.19;52.26;97519.28;4842210;28;108852;-79
2021/06/30 01:58:16;;;;;;;;;9.33;9.33;;;;;25.14;52.03;97518.59;4836759;28;102173;-81
2021/06/30 02:00:52;;;;;;;;;8.00;7.67;;;;;25.20;52.17;97542.25;4836870;28;104531;-81
2021/06/30 02:03:33;;;;;;;;;7.67;7.67;;;;;25.21;51.69;97535.56;4836379;28;102656;-81
2021/06/30 02:06:05;;;;;;;;;8.33;7.67;;;;;25.22;51.85;97529.69;4854582;28;107819;-83
2021/06/30 02:08:40;;;;;;;;;8.33;8.33;;;;;25.13;52.04;97514.22;4853725;28;102544;-80
2021/06/30 02:11:12;;;;;;;;;8.67;7.67;;;;;25.24;51.89;97526.63;4857352;28;103336;-78
2021/06/30 02:13:44;;;;;;;;;8.33;8.33;;;;;25.11;51.65;97506.25;4852487;28;102052;-79
2021/06/30 02:16:17;;;;;;;;;10.00;7.33;;;;;25.24;51.59;97537.69;4831973;28;103367;-80
2021/06/30 02:18:49;;;;;;;;;9.00;8.67;;;;;25.13;51.88;97519.75;4839181;28;102008;-80
2021/06/30 02:21:16;;;;;;;;;7.67;7.00;;;;;25.14;52.01;97526.91;4838011;28;101810;-80
2021/06/30 02:23:43;;;;;;;;;8.67;7.67;;;;;25.12;51.88;97530.03;4857334;28;102618;-80
2021/06/30 02:26:15;;;;;;;;;6.67;6.67;;;;;25.22;51.68;97551.00;4851317;28;102950;-79
2021/06/30 02:28:47;;;;;;;;;6.33;6.33;;;;;25.12;51.36;97534.72;4857149;28;102520;-80
2021/06/30 02:31:20;;;;;;;;;9.33;8.33;;;;;25.20;51.85;97536.69;4853211;28;102025;-80
2021/06/30 02:33:52;;;;;;;;;7.00;6.67;;;;;25.18;51.72;97538.97;4847906;28;102447;-81
2021/06/30 02:36:24;;;;;;;;;10.00;10.00;;;;;25.13;51.66;97522.50;4844191;28;103738;-80
2021/06/30 02:38:57;;;;;;;;;7.00;7.00;;;;;25.14;51.90;97530.50;4857027;28;102415;-80
2021/06/30 02:41:38;;;;;;;;;7.00;5.67;;;;;25.08;51.33;97534.53;4829861;28;102262;-82
2021/06/30 02:44:05;;;;;;;;;8.00;8.00;;;;;25.17;51.71;97535.38;4843457;28;102176;-80
2021/06/30 02:46:43;;;;;;;;;6.00;6.00;;;;;25.18;51.72;97550.03;4753420;28;108732;-82
2021/06/30 02:49:12;;;;;;;;;6.00;6.00;;;;;25.08;51.62;97528.22;4846812;28;102107;-81
2021/06/30 02:51:53;;;;;;;;;9.33;7.33;;;;;25.15;51.55;97551.50;4842323;28;102676;-81
2021/06/30 02:54:34;;;;;;;;;7.33;7.00;;;;;25.13;51.50;97542.69;4853428;28;102737;-81
2021/06/30 02:57:09;;;;;;;;;7.00;6.33;;;;;25.10;51.71;97537.00;4835164;28;108445;-81
2021/06/30 02:59:42;;;;;;;;;5.33;5.00;;;;;25.07;51.57;97534.88;4850135;28;102293;-80
2021/06/30 03:02:14;;;;;;;;;5.00;5.00;;;;;25.11;51.96;97549.69;4857484;28;102241;-81
2021/06/30 03:04:46;;;;;;;;;6.00;6.00;;;;;25.05;51.58;97559.25;4853130;28;102551;-80
2021/06/30 03:07:13;;;;;;;;;6.67;6.00;;;;;25.15;51.57;97578.34;4858695;28;103011;-80
2021/06/30 03:09:45;;;;;;;;;7.00;7.00;;;;;25.07;51.53;97574.44;4854490;28;102424;-81
2021/06/30 03:12:13;;;;;;;;;5.33;5.33;;;;;25.12;51.47;97601.94;4835975;28;102885;-80
2021/06/30 03:14:45;;;;;;;;;7.00;6.67;;;;;25.08;51.59;97612.00;4826148;28;101976;-81
2021/06/30 03:17:17;;;;;;;;;5.33;5.33;;;;;25.13;51.58;97630.41;4836785;28;103336;-82
2021/06/30 03:19:49;;;;;;;;;6.67;6.67;;;;;25.10;51.30;97619.97;4850295;28;102546;-80
2021/06/30 03:22:22;;;;;;;;;6.67;6.00;;;;;24.99;51.37;97624.19;4849179;28;102701;-80
2021/06/30 03:24:56;;;;;;;;;6.00;5.00;;;;;25.09;51.27;97662.63;4837737;28;101372;-80
2021/06/30 03:27:25;;;;;;;;;4.67;4.67;;;;;24.98;51.15;97664.03;4837150;28;105849;-80
2021/06/30 03:30:07;;;;;;;;;5.33;5.33;;;;;25.01;51.44;97671.69;4836447;28;102554;-80
2021/06/30 03:32:39;;;;;;;;;5.00;5.00;;;;;24.97;51.52;97665.97;4837271;28;102029;-79
2021/06/30 03:35:12;;;;;;;;;7.00;6.00;;;;;25.00;51.43;97673.63;4847619;28;102642;-79
2021/06/30 03:37:39;;;;;;;;;4.67;4.67;;;;;25.08;51.76;97694.19;4852399;28;102418;-80
2021/06/30 03:40:12;;;;;;;;;4.67;4.67;;;;;24.99;51.33;97679.50;4846968;28;102175;-80
2021/06/30 03:42:44;;;;;;;;;4.67;4.33;;;;;25.07;51.28;97687.03;4839754;28;101377;-81
2021/06/30 03:45:16;;;;;;;;;4.67;3.00;;;;;25.04;51.06;97694.00;4850441;28;103242;-80
2021/06/30 03:47:43;;;;;;;;;3.33;3.33;;;;;24.99;51.05;97672.00;4854199;28;104352;-80
2021/06/30 03:50:16;;;;;;;;;5.67;5.00;;;;;25.06;51.11;97693.69;4849439;28;103616;-81
2021/06/30 03:52:56;;;;;;;;;5.00;5.00;;;;;25.03;51.16;97702.63;4845051;28;102670;-81
2021/06/30 03:55:29;;;;;;;;;4.00;4.00;;;;;25.05;51.01;97712.22;4829686;28;104387;-81
2021/06/30 03:58:01;;;;;;;;;4.00;4.00;;;;;25.03;50.78;97719.22;4836394;28;103087;-81
2021/06/30 04:00:34;;;;;;;;;3.67;3.67;;;;;25.07;50.47;97721.03;4848665;28;103230;-81
2021/06/30 04:03:07;;;;;;;;;3.33;3.00;;;;;25.01;50.80;97716.75;4838740;28;102263;-82
2021/06/30 04:05:40;;;;;;;;;4.67;4.00;;;;;25.10;50.33;97738.94;4842037;28;102755;-83
2021/06/30 04:08:09;;;;;;;;;4.00;4.00;;;;;25.00;50.52;97739.19;4853398;28;104056;-80
2021/06/30 04:10:41;;;;;;;;;3.00;3.00;;;;;24.99;50.75;97748.66;4843674;28;101953;-80
2021/06/30 04:13:16;;;;;;;;;3.33;2.33;;;;;25.06;50.44;97769.19;4829253;28;103724;-80
2021/06/30 04:15:48;;;;;;;;;3.00;3.00;;;;;24.97;50.56;97778.56;4838436;28;103264;-80
2021/06/30 04:18:20;;;;;;;;;3.33;3.00;;;;;25.07;50.42;97797.69;4832337;28;103333;-80
2021/06/30 04:20:52;;;;;;;;;3.00;3.00;;;;;25.03;50.36;97800.28;4847996;28;103669;-82
2021/06/30 04:23:24;;;;;;;;;4.00;4.00;;;;;25.02;50.43;97800.56;4823408;28;101885;-82
2021/06/30 04:25:57;;;;;;;;;1.00;1.00;;;;;24.98;50.63;97794.03;4850663;28;105287;-80
2021/06/30 04:28:29;;;;;;;;;2.33;2.00;;;;;25.03;50.42;97814.09;4848713;28;104051;-79
2021/06/30 04:31:01;;;;;;;;;3.00;3.00;;;;;24.99;50.53;97807.53;4852785;28;102414;-80
2021/06/30 04:33:34;;;;;;;;;3.00;3.00;;;;;25.01;50.50;97808.06;4827225;28;102179;-82
2021/06/30 04:36:15;;;;;;;;;2.00;2.00;;;;;24.97;50.23;97809.00;4833181;28;102793;-80
2021/06/30 04:38:56;;;;;;;;;4.00;4.00;;;;;25.00;50.32;97813.88;4829096;28;103647;-80
2021/06/30 04:41:29;;;;;;;;;3.00;3.00;;;;;24.98;50.43;97805.94;4831775;28;102664;-81
2021/06/30 04:44:01;;;;;;;;;2.33;2.33;;;;;24.92;50.25;97807.16;4845265;28;102412;-81
2021/06/30 04:46:33;;;;;;;;;2.33;2.33;;;;;25.00;50.44;97824.94;4858270;28;102318;-82
2021/06/30 04:49:06;;;;;;;;;3.00;3.00;;;;;24.91;50.53;97804.69;4850540;28;109009;-80
2021/06/30 04:51:39;;;;;;;;;3.00;3.00;;;;;24.98;50.41;97824.47;4808849;28;102756;-80
2021/06/30 04:54:14;;;;;;;;;3.00;2.00;;;;;24.94;50.60;97820.69;4802599;28;102195;-81
2021/06/30 04:56:51;;;;;;;;;3.00;3.00;;;;;24.98;50.45;97832.75;4839818;28;101987;-81
2021/06/30 04:59:37;;;;;;;;;4.00;3.00;;;;;24.96;50.54;97827.53;4817065;28;107796;-81
2021/06/30 05:02:04;;;;;;;;;2.33;2.33;;;;;24.98;50.61;97832.75;4824278;29;102782;-81
2021/06/30 05:04:37;;;;;;;;;3.33;2.67;;;;;24.99;50.45;97828.88;4830595;29;102268;-79
2021/06/30 05:07:09;;;;;;;;;3.00;3.00;;;;;24.93;50.60;97819.88;4829513;28;102690;-81
2021/06/30 05:09:42;;;;;;;;;3.33;2.00;;;;;24.96;50.49;97823.94;4814683;28;107624;-79
2021/06/30 05:12:14;;;;;;;;;2.67;2.67;;;;;24.86;50.58;97806.47;4824683;29;102777;-80
2021/06/30 05:14:50;;;;;;;;;3.00;3.00;;;;;24.87;50.48;97804.53;4819944;28;104398;-80
2021/06/30 05:17:22;;;;;;;;;1.33;1.33;;;;;24.88;50.53;97806.97;4820463;29;102522;-80
2021/06/30 05:19:50;;;;;;;;;3.00;3.00;;;;;24.91;50.61;97807.47;4834101;29;101777;-81
2021/06/30 05:22:17;;;;;;;;;3.00;2.00;;;;;24.97;50.63;97820.06;4822938;29;102328;-81
2021/06/30 05:24:59;;;;;;;;;4.67;3.33;;;;;24.94;50.37;97815.97;4824699;28;102909;-80
2021/06/30 05:27:27;;;;;;;;;2.00;2.00;;;;;24.87;50.46;97799.81;4813880;29;103201;-82
2021/06/30 05:30:08;;;;;;;;;1.67;1.67;;;;;24.93;50.31;97811.56;4795362;29;108160;-83
2021/06/30 05:32:49;;;;;;;;;2.00;2.00;;;;;24.94;50.62;97809.63;4820472;28;102306;-79
2021/06/30 05:35:30;;;;;;;;;2.00;2.00;;;;;24.95;50.32;97817.59;4817942;28;103443;-80
2021/06/30 05:38:00;;;;;;;;;2.00;1.00;;;;;24.97;50.31;97820.06;4799664;29;102143;-80
2021/06/30 05:40:41;;;;;;;;;2.00;2.00;;;;;24.96;50.40;97810.13;4831378;28;108051;-81
2021/06/30 05:43:22;;;;;;;;;2.00;2.00;;;;;24.92;50.36;97806.34;4796510;29;103047;-82
2021/06/30 05:46:04;;;;;;;;;2.33;2.33;;;;;24.91;50.11;97811.06;4817556;29;102221;-81
2021/06/30 05:48:46;;;;;;;;;1.00;1.00;;;;;25.01;50.16;97827.41;4812923;29;101990;-80
2021/06/30 05:51:13;;;;;;;;;1.67;1.33;;;;;24.98;50.51;97832.75;4827649;29;102903;-81
2021/06/30 05:53:40;;;;;;;;;3.33;2.33;;;;;24.96;50.57;97835.84;4819788;29;102016;-81
2021/06/30 05:56:08;;;;;;;;;1.00;1.00;;;;;24.96;50.16;97835.00;4812813;29;101683;-81
2021/06/30 05:58:40;;;;;;;;;2.67;1.67;;;;;24.90;50.27;97826.03;4844863;28;102384;-81
2021/06/30 06:01:13;;;;;;;;;2.00;2.00;;;;;24.98;50.42;97841.06;4814840;29;107399;-80
2021/06/30 06:03:54;;;;;;;;;2.00;2.00;;;;;25.04;50.16;97842.56;4737012;29;102612;-81
2021/06/30 06:06:34;;;;;;;;;3.33;2.33;;;;;24.98;50.10;97824.47;4809518;29;102002;-80
2021/06/30 06:09:03;;;;;;;;;1.33;1.33;;;;;25.02;50.10;97834.59;4803457;29;104061;-81
2021/06/30 06:11:35;;;;;;;;;2.00;2.00;;;;;25.01;50.16;97832.13;4827788;28;103939;-81
2021/06/30 06:14:08;;;;;;;;;2.00;2.00;;;;;24.98;50.09;97824.47;4831817;28;102530;-80
2021/06/30 06:16:49;;;;;;;;;1.33;1.00;;;;;25.06;50.23;97843.06;4756207;29;104989;-80
2021/06/30 06:19:30;;;;;;;;;3.33;2.00;;;;;25.01;49.95;97829.34;4813511;29;102505;-80
2021/06/30 06:22:11;;;;;;;;;2.00;2.00;;;;;25.06;50.36;97840.31;4801956;29;109554;-82
2021/06/30 06:24:43;;;;;;;;;2.00;1.33;;;;;25.00;50.12;97825.78;4818120;29;105108;-81
2021/06/30 06:27:15;;;;;;;;;1.00;1.00;;;;;25.02;50.47;97831.00;4808510;28;102129;-80
2021/06/30 06:29:42;;;;;;;;;2.00;2.00;;;;;25.01;50.45;97829.34;4838621;29;101984;-80
2021/06/30 06:32:23;;;;;;;;;2.00;2.00;;;;;25.06;50.03;97829.25;4751389;29;109056;-81
2021/06/30 06:34:59;;;;;;;;;1.33;1.33;;;;;25.01;50.31;97827.41;4822406;28;102489;-82
2021/06/30 06:37:40;;;;;;;;;2.33;2.33;;;;;25.00;50.23;97830.47;4826516;28;102166;-81
2021/06/30 06:40:09;;;;;;;;;2.00;2.00;;;;;25.10;49.90;97841.31;4804434;29;102258;-80
2021/06/30 06:42:41;;;;;;;;;2.00;2.00;;;;;25.03;50.21;97838.19;4813714;29;108668;-81
2021/06/30 06:45:14;;;;;;;;;2.00;2.00;;;;;24.97;50.20;97814.53;4818222;29;102346;-77
2021/06/30 06:47:46;;;;;;;;;2.00;2.00;;;;;25.11;50.13;97834.66;4835995;29;102750;-80
2021/06/30 06:50:18;;;;;;;;;2.00;2.00;;;;;24.99;50.06;97818.59;4846071;28;102333;-80
2021/06/30 06:52:50;;;;;;;;;1.67;1.33;;;;;25.01;50.30;97821.88;4853158;28;103008;-81
2021/06/30 06:55:18;;;;;;;;;2.00;1.00;;;;;25.09;50.21;97845.19;4866586;28;102714;-82
2021/06/30 06:57:50;;;;;;;;;1.33;1.33;;;;;25.03;50.23;97827.13;4839813;28;102146;-79
2021/06/30 07:00:22;;;;;;;;;2.00;2.00;;;;;25.14;50.01;97836.78;4841983;28;102148;-80
2021/06/30 07:02:54;;;;;;;;;3.67;1.00;;;;;25.12;50.04;97839.88;4838582;28;104280;-81
2021/06/30 07:05:27;;;;;;;;;2.33;2.00;;;;;25.14;50.20;97845.09;4854898;28;102183;-80
2021/06/30 07:07:54;;;;;;;;;2.00;2.00;;;;;25.08;50.30;97827.00;4840930;28;102184;-80
2021/06/30 07:10:26;;;;;;;;;0.67;0.67;;;;;25.01;50.30;97819.13;4861540;28;101805;-82
2021/06/30 07:12:59;;;;;;;;;2.00;1.00;;;;;25.12;50.15;97836.31;4853427;28;105651;-81
2021/06/30 07:15:34;;;;;;;;;2.00;2.00;;;;;25.06;50.33;97832.00;4848405;28;104264;-80
2021/06/30 07:18:02;;;;;;;;;2.00;1.00;;;;;25.09;49.92;97836.91;4861061;28;101930;-80
2021/06/30 07:20:31;;;;;;;;;2.00;2.00;;;;;25.13;50.29;97835.13;4827455;28;102447;-80
2021/06/30 07:23:08;;;;;;;;;1.33;1.33;;;;;25.14;50.39;97847.84;4832658;28;103911;-81
2021/06/30 07:25:35;;;;;;;;;1.00;1.00;;;;;25.04;50.25;97821.25;4841509;28;102087;-82
2021/06/30 07:28:16;;;;;;;;;1.33;1.00;;;;;25.05;50.24;97824.84;4849639;28;102043;-82
2021/06/30 07:30:57;;;;;;;;;2.00;2.00;;;;;25.17;50.09;97847.25;4837601;28;102287;-79
2021/06/30 07:33:41;;;;;;;;;2.33;1.67;;;;;25.16;50.36;97840.06;4827241;28;107408;-81
2021/06/30 07:36:14;;;;;;;;;1.67;1.67;;;;;25.06;50.08;97818.19;4831409;28;101823;-80
2021/06/30 07:38:46;;;;;;;;;2.00;1.00;;;;;25.10;50.17;97830.25;4818079;28;102800;-80
2021/06/30 07:41:13;;;;;;;;;1.00;1.00;;;;;25.16;50.26;97845.59;4856946;28;102727;-81
2021/06/30 07:43:44;;;;;;;;;1.33;1.33;;;;;25.13;50.15;97832.38;4842751;28;107503;-80
2021/06/30 07:46:25;;;;;;;;;1.00;1.00;;;;;25.08;50.35;97816.72;4779052;28;103495;-80
2021/06/30 07:49:07;;;;;;;;;1.00;1.00;;;;;25.18;50.01;97843.31;4816403;28;102605;-80
2021/06/30 07:51:34;;;;;;;;;2.00;1.67;;;;;25.11;50.16;97815.28;4839935;28;104097;-80
2021/06/30 07:54:06;;;;;;;;;1.00;1.00;;;;;25.07;50.20;97811.53;4857065;28;104411;-79
2021/06/30 07:56:33;;;;;;;;;0.67;0.67;;;;;25.12;50.19;97816.94;4839963;28;102107;-81
2021/06/30 07:59:09;;;;;;;;;1.00;1.00;;;;;25.20;50.24;97827.25;4857453;28;102236;-81
2021/06/30 08:01:50;;;;;;;;;1.00;1.00;;;;;25.11;50.30;97810.56;4800267;28;102454;-82
2021/06/30 08:04:31;;;;;;;;;1.00;1.00;;;;;25.16;50.34;97812.41;4812801;28;104383;-81
2021/06/30 08:07:04;;;;;;;;;2.00;2.00;;;;;25.14;50.28;97804.41;4856119;28;102578;-80
2021/06/30 08:09:45;;;;;;;;;1.33;1.00;;;;;25.22;50.16;97816.66;4838763;28;102169;-81
2021/06/30 08:12:15;;;;;;;;;1.00;1.00;;;;;25.09;50.35;97800.94;4819983;28;101387;-81
2021/06/30 08:14:48;;;;;;;;;1.67;1.67;;;;;25.22;50.30;97823.00;4851891;28;104398;-82
2021/06/30 08:17:18;;;;;;;;;1.00;1.00;;;;;25.11;50.55;97804.22;4838827;28;102545;-80
2021/06/30 08:19:57;;;;;;;;;2.00;2.00;;;;;25.20;50.16;97824.47;4838454;28;104017;-82
2021/06/30 08:22:25;;;;;;;;;1.33;1.33;;;;;25.19;50.21;97831.94;4836462;28;104215;-80
2021/06/30 08:24:55;;;;;;;;;1.00;1.00;;;;;25.24;50.27;97833.78;4851808;28;102462;-82
2021/06/30 08:27:34;;;;;;;;;1.00;1.00;;;;;25.22;50.13;97824.97;4833799;28;102179;-80
2021/06/30 08:30:16;;;;;;;;;1.00;1.00;;;;;25.22;50.30;97823.00;4834418;28;102487;-82
2021/06/30 08:32:57;;;;;;;;;2.00;2.00;;;;;25.20;50.25;97822.53;4763117;28;102177;-80
2021/06/30 08:35:25;;;;;;;;;1.67;1.67;;;;;25.19;50.23;97817.28;4822550;28;103974;-80
2021/06/30 08:38:06;;;;;;;;;2.00;2.00;;;;;25.15;50.33;97816.28;4834800;28;101929;-80
2021/06/30 08:40:39;;;;;;;;;1.00;1.00;;;;;25.21;50.61;97817.81;4856504;28;102145;-79
2021/06/30 08:43:08;;;;;;;;;1.67;1.00;;;;;25.17;50.42;97816.81;4817167;28;102351;-80
2021/06/30 08:45:49;;;;;;;;;1.33;1.33;;;;;25.27;50.36;97830.38;4834517;28;108583;-79
2021/06/30 08:48:23;;;;;;;;;1.00;1.00;;;;;25.18;50.51;97816.47;4852212;28;102031;-80
2021/06/30 08:50:51;;;;;;;;;0.33;0.33;;;;;25.27;50.10;97830.38;4840815;28;102105;-80
2021/06/30 08:53:32;;;;;;;;;2.00;1.00;;;;;25.26;50.34;97829.53;4791958;29;102257;-80
2021/06/30 08:56:03;;;;;;;;;1.00;1.00;;;;;25.17;50.38;97814.03;4824686;28;104383;-79
2021/06/30 08:58:37;;;;;;;;;1.67;1.67;;;;;25.24;50.34;97823.53;4853230;28;102290;-83
2021/06/30 09:01:05;;;;;;;;;1.00;1.00;;;;;25.30;50.22;97832.53;4837293;28;102849;-81
2021/06/30 09:03:43;;;;;;;;;1.33;0.67;;;;;25.21;50.14;97821.41;4838902;28;101688;-82
2021/06/30 09:06:13;;;;;;;;;1.00;1.00;;;;;25.25;50.20;97822.41;4845246;28;107431;-80
2021/06/30 09:08:46;;;;;;;;;2.00;2.00;;;;;25.26;50.34;97812.16;4833689;28;102515;-82
2021/06/30 09:11:29;;;;;;;;;1.00;0.67;;;;;25.32;50.33;97821.94;4823322;28;102687;-81
2021/06/30 09:14:10;;;;;;;;;1.33;1.33;;;;;25.33;50.21;97829.13;4846303;28;102265;-82
2021/06/30 09:17:02;;;;;;;;;2.00;2.00;;;;;25.25;50.27;97811.34;4831014;28;107105;-81
2021/06/30 09:19:57;;;;;;;;;1.00;1.00;;;;;25.26;50.33;97793.56;4846943;28;102579;-80
2021/06/30 09:22:29;;;;;;;;;1.00;1.00;;;;;25.34;50.29;97816.91;4773170;28;102521;-79
2021/06/30 09:24:56;;;;;;;;;1.67;1.67;;;;;25.38;50.35;97806.03;4854827;28;102217;-80
2021/06/30 09:27:41;;;;;;;;;1.00;1.00;;;;;25.37;50.32;97813.50;4819678;28;103085;-80
2021/06/30 09:30:10;;;;;;;;;1.00;1.00;;;;;25.31;50.35;97798.97;4851033;28;102552;-81
2021/06/30 09:32:54;;;;;;;;;0.00;0.00;;;;;25.32;50.20;97795.09;4843108;28;102443;-81
2021/06/30 09:35:26;;;;;;;;;2.33;2.00;;;;;25.41;50.32;97806.22;4808182;28;102555;-80
2021/06/30 09:37:54;;;;;;;;;1.00;1.00;;;;;25.31;50.39;97793.44;4833871;28;103083;-80
2021/06/30 09:40:21;;;;;;;;;2.00;2.00;;;;;25.32;50.34;97797.84;4854615;28;102516;-80
2021/06/30 09:42:51;;;;;;;;;3.67;2.00;;;;;25.35;50.36;97799.19;4824488;28;102795;-82
2021/06/30 09:45:20;;;;;;;;;0.00;0.00;;;;;25.41;50.30;97813.69;4847382;28;102193;-79
2021/06/30 09:47:48;;;;;;;;;1.00;1.00;;;;;25.45;50.21;97826.59;4851401;28;103346;-78
2021/06/30 09:50:16;;;;;;;;;1.00;1.00;;;;;25.39;50.21;97822.31;4837430;28;102447;-80
2021/06/30 09:52:45;;;;;;;;;2.00;1.00;;;;;25.36;50.39;97803.56;4819933;29;102253;-82
2021/06/30 09:55:30;;;;;;;;;3.00;1.33;;;;;25.46;50.42;97819.91;4784721;28;102118;-81
2021/06/30 09:58:11;;;;;;;;;1.00;1.00;;;;;25.41;50.34;97817.28;4812389;28;103645;-82
2021/06/30 10:01:20;;;;;;;;;1.00;1.00;;;;;25.39;50.38;97811.25;4986106;27;102137;-81
2021/06/30 10:03:47;;;;;;;;;0.67;0.67;;;;;25.48;50.28;97827.91;4982419;28;104296;-76
2021/06/30 10:06:31;;;;;;;;;1.00;1.00;;;;;25.50;50.20;97822.88;5002072;28;103075;-80
2021/06/30 10:09:00;;;;;;;;;2.00;1.00;;;;;25.51;50.37;97832.81;4895953;28;102931;-82
2021/06/30 10:11:28;;;;;;;;;1.33;1.33;;;;;25.42;50.31;97816.16;4981282;28;101850;-81
2021/06/30 10:13:55;;;;;;;;;1.00;1.00;;;;;25.53;50.14;97831.34;4957530;28;102099;-80
2021/06/30 10:16:23;;;;;;;;;1.00;1.00;;;;;25.48;50.22;97814.91;4954715;28;104287;-80
2021/06/30 10:18:53;;;;;;;;;1.00;1.00;;;;;25.53;50.06;97823.03;4949662;28;102154;-80
2021/06/30 10:21:32;;;;;;;;;1.00;1.00;;;;;25.49;50.29;97816.50;4984131;28;102424;-80
2021/06/30 10:24:14;;;;;;;;;2.00;0.33;;;;;25.53;50.12;97820.28;4980103;28;102514;-80
2021/06/30 10:26:55;;;;;;;;;1.00;1.00;;;;;25.48;50.28;97808.53;4905152;28;108480;-79
2021/06/30 10:29:37;;;;;;;;;1.00;1.00;;;;;25.50;50.28;97807.06;4981777;28;103410;-80
2021/06/30 10:32:11;;;;;;;;;1.00;0.33;;;;;25.57;49.99;97823.28;4971449;28;105893;-81
2021/06/30 10:34:59;;;;;;;;;0.00;0.00;;;;;25.50;50.14;97812.63;4938394;28;103444;-81
2021/06/30 10:37:40;;;;;;;;;1.00;1.00;;;;;25.60;50.14;97831.75;4976223;28;103645;-79
2021/06/30 10:40:13;;;;;;;;;0.00;0.00;;;;;25.63;50.21;97828.34;4952753;28;102137;-80
2021/06/30 10:43:01;;;;;;;;;1.00;1.00;;;;;25.57;50.04;97812.22;4986117;28;102573;-80
2021/06/30 10:45:42;;;;;;;;;1.00;1.00;;;;;25.59;50.18;97816.28;4897412;28;102664;-80
2021/06/30 10:48:13;;;;;;;;;1.00;0.33;;;;;25.62;50.17;97807.31;4950831;28;102709;-81
2021/06/30 10:51:09;;;;;;;;;1.00;1.00;;;;;25.63;50.23;97811.75;4895045;28;103914;-81
2021/06/30 10:53:49;;;;;;;;;1.00;1.00;;;;;25.65;50.08;97820.56;4975725;28;102370;-80
2021/06/30 10:56:17;;;;;;;;;0.00;0.00;;;;;25.62;49.98;97806.53;4981030;28;102072;-81
2021/06/30 10:59:00;;;;;;;;;1.00;1.00;;;;;25.62;50.22;97814.84;4965124;28;106853;-81
2021/06/30 11:01:27;;;;;;;;;1.00;1.00;;;;;25.57;50.19;97801.13;4918714;28;102454;-82
2021/06/30 11:04:08;;;;;;;;;1.00;1.00;;;;;25.58;50.23;97798.03;4961804;28;103706;-79
2021/06/30 11:06:49;;;;;;;;;1.00;1.00;;;;;25.62;50.06;97809.31;4976219;28;102101;-82
2021/06/30 11:09:29;;;;;;;;;1.00;1.00;;;;;25.63;50.06;97797.88;4984368;28;104104;-79
2021/06/30 11:12:11;;;;;;;;;2.00;2.00;;;;;25.62;50.30;97799.03;4963949;28;102185;-80
2021/06/30 11:14:52;;;;;;;;;1.33;1.33;;;;;25.72;50.16;97820.09;4941201;28;102107;-82
2021/06/30 11:17:34;;;;;;;;;2.00;1.00;;;;;25.74;50.38;97824.19;4960640;28;102191;-81
2021/06/30 11:20:13;;;;;;;;;1.00;1.00;;;;;25.75;50.18;97823.06;4966183;28;103729;-80
2021/06/30 11:23:20;;;;;;;;;2.67;1.00;;;;;25.75;50.10;97820.28;4908102;28;102652;-80
2021/06/30 11:26:36;;;;;;;;;1.33;1.00;;;;;25.69;50.13;97813.25;4920710;28;102084;-82
2021/06/30 11:29:47;;;;;;;;;1.00;1.00;;;;;25.73;50.10;97822.53;4905880;28;102061;-83
2021/06/30 11:32:39;;;;;;;;;1.33;1.00;;;;;25.73;50.12;97817.00;4856380;28;108364;-83
2021/06/30 11:35:08;;;;;;;;;1.00;1.00;;;;;25.72;50.09;97820.91;4951247;28;101627;-83
2021/06/30 11:38:02;;;;;;;;;1.00;1.00;;;;;25.73;50.25;97817.00;4967686;28;102362;-83
2021/06/30 11:40:57;;;;;;;;;1.00;1.00;;;;;25.77;50.15;97823.53;4886441;28;101777;-83
2021/06/30 11:43:41;;;;;;;;;1.00;1.00;;;;;25.76;50.20;97821.06;4892828;28;108215;-82
2021/06/30 11:46:25;;;;;;;;;1.33;0.33;;;;;25.77;50.20;97815.22;4940746;28;101469;-82
2021/06/30 11:49:07;;;;;;;;;0.67;0.67;;;;;25.72;50.13;97806.25;4966828;28;101884;-84
2021/06/30 11:51:58;;;;;;;;;1.33;1.33;;;;;25.83;50.14;97831.72;4962037;28;102270;-84
2021/06/30 11:54:39;;;;;;;;;2.00;1.00;;;;;25.82;50.17;97830.91;4872530;28;107982;-80
2021/06/30 11:57:08;;;;;;;;;1.00;1.00;;;;;25.73;50.00;97805.94;4924543;28;102613;-79
2021/06/30 11:59:36;;;;;;;;;1.00;1.00;;;;;25.83;50.00;97821.47;4941557;28;102211;-81
2021/06/30 12:02:17;;;;;;;;;0.33;0.33;;;;;25.74;49.94;97795.66;4965928;28;102311;-80
2021/06/30 12:05:12;;;;;;;;;1.00;1.00;;;;;25.73;50.03;97799.56;4897320;28;111168;-81
2021/06/30 12:07:54;;;;;;;;;0.33;0.33;;;;;25.88;49.97;97820.50;4937916;28;102435;-81